createdAt,value
2023-04-18T00:02:27.260Z,96369.00
2023-04-18T00:04:56.814Z,96370.20
2023-04-18T00:07:25.573Z,96376.00
2023-04-18T00:09:53.592Z,96375.40
2023-04-18T00:12:22.126Z,96376.20
2023-04-18T00:14:52.900Z,96377.40
2023-04-18T00:17:21.226Z,96379.00
2023-04-18T00:19:49.840Z,96375.60
2023-04-18T00:22:22.318Z,96373.20
2023-04-18T00:24:50.787Z,96380.00
2023-04-18T00:27:19.097Z,96382.40
2023-04-18T00:29:47.478Z,96389.00
2023-04-18T00:32:17.536Z,96387.80
2023-04-18T00:34:45.600Z,96386.80
2023-04-18T00:37:13.697Z,96390.40
2023-04-18T00:39:43.340Z,96389.40
2023-04-18T00:42:11.469Z,96392.80
2023-04-18T00:44:39.730Z,96393.20
2023-04-18T00:47:07.956Z,96392.20
2023-04-18T00:49:36.087Z,96392.80
2023-04-18T00:52:04.241Z,96392.40
2023-04-18T00:54:32.356Z,96398.20
2023-04-18T00:57:00.849Z,96400.40
2023-04-18T00:59:28.814Z,96397.80
2023-04-18T01:01:57.048Z,96393.20
2023-04-18T01:04:25.288Z,96390.40
2023-04-18T01:06:53.539Z,96386.80
2023-04-18T01:09:22.671Z,96387.40
2023-04-18T01:11:53.331Z,96388.80
2023-04-18T01:14:21.425Z,96389.20
2023-04-18T01:16:49.484Z,96385.00
2023-04-18T01:19:20.242Z,96385.00
2023-04-18T01:21:49.058Z,96388.40
2023-04-18T01:24:17.429Z,96387.40
2023-04-18T01:26:47.731Z,96387.20
2023-04-18T01:29:15.974Z,96387.80
2023-04-18T01:31:44.180Z,96387.00
2023-04-18T01:34:12.624Z,96388.00
2023-04-18T01:36:42.900Z,96386.40
2023-04-18T01:39:13.056Z,96383.00
2023-04-18T01:41:42.104Z,96382.60
2023-04-18T01:44:11.070Z,96385.20
2023-04-18T01:46:40.134Z,96383.00
2023-04-18T01:49:08.329Z,96378.40
2023-04-18T01:51:38.893Z,96379.00
2023-04-18T01:54:06.895Z,96377.60
2023-04-18T01:56:34.908Z,96379.60
2023-04-18T01:59:03.087Z,96378.00
2023-04-18T02:01:31.247Z,96378.60
2023-04-18T02:04:00.244Z,96381.60
2023-04-18T02:06:28.387Z,96378.40
2023-04-18T02:08:56.510Z,96375.40
2023-04-18T02:11:26.378Z,96378.40
2023-04-18T02:13:54.580Z,96376.00
2023-04-18T02:16:22.659Z,96374.80
2023-04-18T02:18:52.956Z,96374.60
2023-04-18T02:21:22.143Z,96369.00
2023-04-18T02:23:51.017Z,96375.20
2023-04-18T02:26:19.171Z,96377.00
2023-04-18T02:28:47.155Z,96374.80
2023-04-18T02:31:15.767Z,96375.60
2023-04-18T02:33:44.766Z,96385.80
2023-04-18T02:36:12.957Z,96375.80
2023-04-18T02:38:40.950Z,96376.60
2023-04-18T02:41:09.012Z,96378.00
2023-04-18T02:43:37.046Z,96373.80
2023-04-18T02:46:05.132Z,96368.40
2023-04-18T02:48:34.061Z,96374.80
2023-04-18T02:51:03.717Z,96376.60
2023-04-18T02:53:32.750Z,96381.60
2023-04-18T02:56:01.333Z,96385.60
2023-04-18T02:58:37.949Z,96379.80
2023-04-18T03:01:24.578Z,96382.80
2023-04-18T03:03:58.039Z,96379.20
2023-04-18T03:06:39.382Z,96382.60
2023-04-18T03:09:07.811Z,96383.80
2023-04-18T03:11:38.007Z,96387.60
2023-04-18T03:14:06.386Z,96387.80
2023-04-18T03:16:41.227Z,96384.00
2023-04-18T03:19:10.538Z,96385.80
2023-04-18T03:21:38.971Z,96388.20
2023-04-18T03:24:07.533Z,96389.20
2023-04-18T03:26:36.112Z,96394.20
2023-04-18T03:29:04.141Z,96393.80
2023-04-18T03:31:33.512Z,96391.80
2023-04-18T03:34:01.585Z,96388.40
2023-04-18T03:36:31.450Z,96385.00
2023-04-18T03:38:59.611Z,96385.60
2023-04-18T03:41:28.249Z,96385.60
2023-04-18T03:43:57.033Z,96387.60
2023-04-18T03:46:25.235Z,96384.40
2023-04-18T03:48:54.575Z,96386.40
2023-04-18T03:51:22.677Z,96390.20
2023-04-18T03:53:50.688Z,96392.80
2023-04-18T03:56:18.928Z,96396.20
2023-04-18T03:58:54.154Z,96399.80
2023-04-18T04:01:22.443Z,96401.00
2023-04-18T04:03:52.331Z,96403.80
2023-04-18T04:06:21.048Z,96403.00
2023-04-18T04:08:49.017Z,96408.80
2023-04-18T04:11:20.454Z,96409.40
2023-04-18T04:13:48.637Z,96407.60
2023-04-18T04:16:18.061Z,96414.40
2023-04-18T04:18:47.247Z,96406.80
2023-04-18T04:21:15.875Z,96410.40
2023-04-18T04:23:48.522Z,96412.80
2023-04-18T04:26:27.947Z,96419.60
2023-04-18T04:29:03.752Z,96420.60
2023-04-18T04:31:32.612Z,96423.40
2023-04-18T04:34:00.671Z,96428.00
2023-04-18T04:36:29.885Z,96429.60
2023-04-18T04:38:59.638Z,96431.20
2023-04-18T04:41:33.426Z,96429.60
2023-04-18T04:44:01.937Z,96429.60
2023-04-18T04:46:31.894Z,96430.80
2023-04-18T04:49:01.096Z,96427.80
2023-04-18T04:51:29.232Z,96428.00
2023-04-18T04:53:58.176Z,96423.20
2023-04-18T04:56:26.483Z,96423.40
2023-04-18T04:58:56.151Z,96423.00
2023-04-18T05:01:34.670Z,96422.00
2023-04-18T05:04:02.864Z,96435.40
2023-04-18T05:06:31.312Z,96432.00
2023-04-18T05:09:01.039Z,96442.40
2023-04-18T05:11:29.262Z,96445.00
2023-04-18T05:13:57.363Z,96441.60
2023-04-18T05:16:25.348Z,96440.40
2023-04-18T05:18:53.456Z,96447.60
2023-04-18T05:21:21.465Z,96453.40
2023-04-18T05:23:49.540Z,96450.40
2023-04-18T05:26:18.774Z,96456.20
2023-04-18T05:28:46.841Z,96459.00
2023-04-18T05:31:14.893Z,96459.00
2023-04-18T05:33:42.997Z,96463.20
2023-04-18T05:36:11.250Z,96466.00
2023-04-18T05:38:39.303Z,96468.40
2023-04-18T05:41:07.367Z,96467.40
2023-04-18T05:43:35.453Z,96468.80
2023-04-18T05:46:03.648Z,96465.40
2023-04-18T05:48:31.684Z,96469.00
2023-04-18T05:50:59.777Z,96466.40
2023-04-18T05:53:27.947Z,96473.80
2023-04-18T05:55:57.693Z,96473.80
2023-04-18T05:58:25.818Z,96475.20
2023-04-18T06:00:53.873Z,96484.60
2023-04-18T06:03:22.141Z,96477.20
2023-04-18T06:05:50.460Z,96477.60
2023-04-18T06:08:18.571Z,96478.40
2023-04-18T06:10:46.714Z,96483.40
2023-04-18T06:13:14.812Z,96483.00
2023-04-18T06:15:42.843Z,96481.40
2023-04-18T06:18:10.840Z,96483.60
2023-04-18T06:20:39.085Z,96487.60
2023-04-18T06:23:08.374Z,96486.20
2023-04-18T06:25:36.447Z,96485.00
2023-04-18T06:28:04.731Z,96483.40
2023-04-18T06:30:32.870Z,96473.60
2023-04-18T06:33:01.144Z,96475.20
2023-04-18T06:35:29.891Z,96475.00
2023-04-18T06:37:57.927Z,96475.00
2023-04-18T06:40:26.030Z,96475.20
2023-04-18T06:42:54.119Z,96481.60
2023-04-18T06:45:22.314Z,96477.60
2023-04-18T06:47:51.693Z,96477.40
2023-04-18T06:50:19.736Z,96481.80
2023-04-18T06:52:47.865Z,96477.60
2023-04-18T06:55:15.847Z,96482.60
2023-04-18T06:57:43.964Z,96482.60
2023-04-18T07:00:12.645Z,96484.80
2023-04-18T07:02:41.452Z,96479.00
2023-04-18T07:05:09.801Z,96490.60
2023-04-18T07:07:37.993Z,96486.40
2023-04-18T07:10:07.000Z,96486.40
2023-04-18T07:12:35.781Z,96488.60
2023-04-18T07:15:04.922Z,96494.20
2023-04-18T07:17:33.095Z,96495.60
2023-04-18T07:20:01.494Z,96501.20
2023-04-18T07:22:29.802Z,96500.20
2023-04-18T07:24:58.041Z,96500.20
2023-04-18T07:27:26.883Z,96501.00
2023-04-18T07:29:54.951Z,96501.20
2023-04-18T07:32:23.146Z,96502.60
2023-04-18T07:34:52.947Z,96504.80
2023-04-18T07:37:21.531Z,96505.60
2023-04-18T07:39:49.650Z,96505.60
2023-04-18T07:42:17.840Z,96506.60
2023-04-18T07:44:46.974Z,96506.20
2023-04-18T07:47:15.156Z,96505.60
2023-04-18T07:49:43.309Z,96504.00
2023-04-18T07:52:11.361Z,96503.80
2023-04-18T07:54:39.416Z,96508.00
2023-04-18T07:57:07.472Z,96507.00
2023-04-18T07:59:35.430Z,96507.80
2023-04-18T08:02:03.524Z,96510.00
2023-04-18T08:04:31.688Z,96507.20
2023-04-18T08:07:00.086Z,96506.20
2023-04-18T08:09:28.188Z,96507.20
2023-04-18T08:11:58.031Z,96503.40
2023-04-18T08:14:26.148Z,96506.20
2023-04-18T08:16:54.395Z,96502.40
2023-04-18T08:19:23.814Z,96499.40
2023-04-18T08:21:52.258Z,96499.60
2023-04-18T08:24:20.195Z,96505.80
2023-04-18T08:26:48.189Z,96508.80
2023-04-18T08:29:16.353Z,96509.00
2023-04-18T08:31:44.521Z,96509.80
2023-04-18T08:34:12.801Z,96509.40
2023-04-18T08:36:40.875Z,96505.40
2023-04-18T08:39:08.850Z,96506.40
2023-04-18T08:41:40.052Z,96512.80
2023-04-18T08:44:08.101Z,96510.80
2023-04-18T08:46:36.509Z,96513.40
2023-04-18T08:49:05.119Z,96509.00
2023-04-18T08:51:33.393Z,96508.20
2023-04-18T08:54:19.641Z,96503.40
2023-04-18T08:56:48.047Z,96506.00
2023-04-18T08:59:35.737Z,96513.00
2023-04-18T09:02:24.182Z,96511.00
2023-04-18T09:04:55.892Z,96508.60
2023-04-18T09:07:29.965Z,96504.20
2023-04-18T09:09:58.272Z,96508.20
2023-04-18T09:15:11.403Z,96510.20
2023-04-18T09:17:58.819Z,96508.40
2023-04-18T09:20:26.920Z,96510.40
2023-04-18T09:23:16.282Z,96512.00
2023-04-18T09:25:46.726Z,96508.00
2023-04-18T09:28:28.925Z,96509.00
2023-04-18T09:30:58.780Z,96507.00
2023-04-18T09:33:28.495Z,96511.60
2023-04-18T09:35:57.266Z,96510.20
2023-04-18T09:38:45.766Z,96506.20
2023-04-18T09:41:15.875Z,96507.80
2023-04-18T09:43:44.657Z,96508.80
2023-04-18T09:46:13.434Z,96508.20
2023-04-18T09:48:41.978Z,96503.60
2023-04-18T09:51:11.368Z,96503.20
2023-04-18T09:53:41.009Z,96505.20
2023-04-18T09:56:12.342Z,96504.40
2023-04-18T09:58:42.285Z,96507.00
2023-04-18T10:01:13.486Z,96505.00
2023-04-18T10:06:17.844Z,96512.20
2023-04-18T10:08:45.968Z,96510.80
2023-04-18T10:11:14.096Z,96512.80
2023-04-18T10:13:43.880Z,96511.00
2023-04-18T10:16:11.996Z,96504.40
2023-04-18T10:18:40.274Z,96506.80
2023-04-18T10:26:14.988Z,96508.00
2023-04-18T10:28:53.698Z,96506.80
2023-04-18T10:31:23.436Z,96502.60
2023-04-18T10:34:18.270Z,96509.80
2023-04-18T10:37:04.252Z,96506.00
2023-04-18T10:39:58.369Z,96506.80
2023-04-18T10:42:48.165Z,96503.40
2023-04-18T10:45:29.877Z,96503.00
2023-04-18T10:48:27.776Z,96499.40
2023-04-18T10:51:18.300Z,96500.40
2023-04-18T10:53:53.739Z,96495.60
2023-04-18T10:56:21.906Z,96497.00
2023-04-18T10:58:51.505Z,96493.80
2023-04-18T11:01:25.176Z,96495.60
2023-04-18T11:03:53.859Z,96495.40
2023-04-18T11:06:22.735Z,96493.40
2023-04-18T11:08:51.324Z,96492.20
2023-04-18T11:11:19.387Z,96495.80
2023-04-18T11:13:57.604Z,96488.60
2023-04-18T11:16:29.133Z,96490.00
2023-04-18T11:18:57.550Z,96491.20
2023-04-18T11:21:30.601Z,96493.40
2023-04-18T11:23:59.006Z,96487.80
2023-04-18T11:26:27.330Z,96486.20
2023-04-18T11:28:58.541Z,96482.00
2023-04-18T11:31:26.700Z,96475.40
2023-04-18T11:33:58.185Z,96483.40
2023-04-18T11:36:26.410Z,96487.80
2023-04-18T11:38:54.519Z,96480.40
2023-04-18T11:41:24.941Z,96476.00
2023-04-18T11:43:53.045Z,96479.60
2023-04-18T11:46:21.101Z,96477.60
2023-04-18T11:48:50.675Z,96466.80
2023-04-18T11:51:35.985Z,96472.20
2023-04-18T11:54:04.538Z,96471.60
2023-04-18T11:56:34.612Z,96472.40
2023-04-18T11:59:10.489Z,96468.20
2023-04-18T12:01:38.706Z,96465.00
2023-04-18T12:04:08.133Z,96457.20
2023-04-18T12:06:49.686Z,96452.60
2023-04-18T12:09:17.951Z,96449.20
2023-04-18T12:11:58.237Z,96441.80
2023-04-18T12:14:26.420Z,96439.80
2023-04-18T12:16:54.663Z,96437.80
2023-04-18T12:19:29.558Z,96439.60
2023-04-18T12:22:03.312Z,96430.60
2023-04-18T12:24:32.437Z,96428.80
2023-04-18T12:27:00.601Z,96432.80
2023-04-18T12:29:28.977Z,96434.00
2023-04-18T12:31:57.222Z,96433.80
2023-04-18T12:34:25.256Z,96432.80
2023-04-18T12:36:53.896Z,96446.00
2023-04-18T12:39:22.005Z,96436.20
2023-04-18T12:41:50.113Z,96434.60
2023-04-18T12:44:18.208Z,96436.60
2023-04-18T12:46:46.290Z,96435.00
2023-04-18T12:49:14.417Z,96434.60
2023-04-18T12:51:43.654Z,96433.80
2023-04-18T12:54:11.889Z,96433.00
2023-04-18T12:56:39.965Z,96433.80
2023-04-18T12:59:08.140Z,96432.40
2023-04-18T13:01:36.384Z,96429.40
2023-04-18T13:04:12.578Z,96428.00
2023-04-18T13:06:41.617Z,96429.40
2023-04-18T13:09:10.541Z,96429.60
2023-04-18T13:11:38.624Z,96429.60
2023-04-18T13:14:06.742Z,96427.40
2023-04-18T13:16:34.874Z,96427.80
2023-04-18T13:19:02.924Z,96427.00
2023-04-18T13:21:31.510Z,96420.20
2023-04-18T13:23:59.586Z,96419.40
2023-04-18T13:26:28.222Z,96414.60
2023-04-18T13:28:56.443Z,96415.00
2023-04-18T13:31:24.860Z,96411.60
2023-04-18T13:33:52.964Z,96409.60
2023-04-18T13:36:21.278Z,96412.40
2023-04-18T13:38:50.041Z,96406.80
2023-04-18T13:41:18.160Z,96411.40
2023-04-18T13:43:46.408Z,96413.40
2023-04-18T13:46:14.730Z,96413.00
2023-04-18T13:48:42.850Z,96413.40
2023-04-18T13:51:10.869Z,96412.00
2023-04-18T13:53:38.890Z,96408.00
2023-04-18T13:56:07.805Z,96398.80
2023-04-18T13:58:36.089Z,96401.40
2023-04-18T14:01:04.194Z,96399.00
2023-04-18T14:03:33.152Z,96396.40
2023-04-18T14:06:02.853Z,96398.60
2023-04-18T14:08:30.898Z,96397.40
2023-04-18T14:10:58.966Z,96396.40
2023-04-18T14:13:27.292Z,96393.00
2023-04-18T14:15:57.925Z,96393.00
2023-04-18T14:18:26.092Z,96389.20
2023-04-18T14:20:54.934Z,96394.80
2023-04-18T14:23:23.191Z,96388.40
2023-04-18T14:25:51.381Z,96389.80
2023-04-18T14:28:21.672Z,96390.00
2023-04-18T14:30:49.787Z,96389.80
2023-04-18T14:33:18.036Z,96386.20
2023-04-18T14:35:46.126Z,96388.40
2023-04-18T14:38:14.239Z,96385.00
2023-04-18T14:40:42.330Z,96384.80
2023-04-18T14:43:10.592Z,96383.00
2023-04-18T14:45:38.735Z,96384.00
2023-04-18T14:48:08.840Z,96385.80
2023-04-18T14:50:38.791Z,96383.80
2023-04-18T14:53:07.109Z,96386.80
2023-04-18T14:55:35.208Z,96385.80
2023-04-18T14:58:03.271Z,96385.20
2023-04-18T15:00:32.489Z,96384.60
2023-04-18T15:03:00.932Z,96382.00
2023-04-18T15:05:29.198Z,96381.80
2023-04-18T15:07:58.218Z,96384.40
2023-04-18T15:10:26.421Z,96382.00
2023-04-18T15:12:54.518Z,96383.80
2023-04-18T15:15:22.766Z,96376.80
2023-04-18T15:17:50.776Z,96376.00
2023-04-18T15:20:19.001Z,96375.80
2023-04-18T15:22:47.120Z,96372.20
2023-04-18T15:25:17.189Z,96374.40
2023-04-18T15:27:45.291Z,96380.00
2023-04-18T15:30:13.605Z,96382.60
2023-04-18T15:32:42.256Z,96378.80
2023-04-18T15:35:10.698Z,96383.80
2023-04-18T15:37:38.674Z,96378.80
2023-04-18T15:40:09.640Z,96373.20
2023-04-18T15:42:39.161Z,96375.60
2023-04-18T15:45:08.094Z,96373.40
2023-04-18T15:47:36.240Z,96371.60
2023-04-18T15:50:04.896Z,96374.40
2023-04-18T15:52:33.094Z,96374.00
2023-04-18T15:55:01.141Z,96368.20
2023-04-18T15:57:32.078Z,96364.40
2023-04-18T16:00:00.165Z,96367.20
2023-04-18T16:02:28.263Z,96372.40
2023-04-18T16:04:56.496Z,96370.40
2023-04-18T16:07:24.582Z,96370.40
2023-04-18T16:09:52.656Z,96370.20
2023-04-18T16:12:20.859Z,96371.80
2023-04-18T16:14:48.921Z,96369.20
2023-04-18T16:17:16.945Z,96374.40
2023-04-18T16:19:45.070Z,96373.20
2023-04-18T16:22:15.090Z,96375.60
2023-04-18T16:24:43.170Z,96375.60
2023-04-18T16:27:11.245Z,96370.80
2023-04-18T16:29:39.390Z,96370.80
2023-04-18T16:32:08.390Z,96374.40
2023-04-18T16:34:36.399Z,96369.60
2023-04-18T16:37:04.446Z,96371.20
2023-04-18T16:39:32.650Z,96372.40
2023-04-18T16:42:01.313Z,96376.20
2023-04-18T16:47:05.149Z,96373.00
2023-04-18T16:49:33.335Z,96375.60
2023-04-18T16:52:01.926Z,96374.20
2023-04-18T16:54:29.944Z,96373.20
2023-04-18T16:56:58.270Z,96380.20
2023-04-18T16:59:28.440Z,96384.60
2023-04-18T17:01:56.636Z,96383.00
2023-04-18T17:04:27.062Z,96379.80
2023-04-18T17:06:56.811Z,96382.80
2023-04-18T17:09:24.921Z,96380.40
2023-04-18T17:11:53.045Z,96375.40
2023-04-18T17:14:21.193Z,96382.00
2023-04-18T17:16:51.300Z,96374.40
2023-04-18T17:19:22.564Z,96375.20
2023-04-18T17:21:51.042Z,96373.80
2023-04-18T17:24:19.116Z,96375.00
2023-04-18T17:26:47.315Z,96377.20
2023-04-18T17:29:15.889Z,96379.00
2023-04-18T17:31:44.393Z,96379.00
2023-04-18T17:34:12.409Z,96381.40
2023-04-18T17:36:40.393Z,96384.60
2023-04-18T17:39:09.600Z,96383.80
2023-04-18T17:41:38.265Z,96384.80
2023-04-18T17:44:07.817Z,96388.80
2023-04-18T17:46:36.484Z,96389.80
2023-04-18T17:49:04.906Z,96387.40
2023-04-18T17:51:33.191Z,96391.00
2023-04-18T17:54:01.326Z,96380.80
2023-04-18T17:56:30.717Z,96389.20
2023-04-18T17:58:58.959Z,96385.40
2023-04-18T18:01:30.417Z,96386.20
2023-04-18T18:03:58.919Z,96386.60
2023-04-18T18:06:29.961Z,96385.20
2023-04-18T18:08:58.257Z,96386.40
2023-04-18T18:11:28.216Z,96380.60
2023-04-18T18:13:57.540Z,96387.40
2023-04-18T18:16:26.157Z,96386.80
2023-04-18T18:18:54.862Z,96386.00
2023-04-18T18:21:23.226Z,96383.40
2023-04-18T18:23:51.381Z,96384.00
2023-04-18T18:26:19.477Z,96384.80
2023-04-18T18:28:47.841Z,96388.40
2023-04-18T18:31:16.889Z,96386.40
2023-04-18T18:33:44.987Z,96384.20
2023-04-18T18:36:14.681Z,96384.20
2023-04-18T18:38:42.665Z,96382.80
2023-04-18T18:41:10.760Z,96383.00
2023-04-18T18:43:38.769Z,96383.80
2023-04-18T18:46:06.899Z,96378.80
2023-04-18T18:48:38.225Z,96379.00
2023-04-18T18:51:06.839Z,96382.00
2023-04-18T18:53:34.982Z,96383.00
2023-04-18T18:56:03.076Z,96379.60
2023-04-18T18:58:31.118Z,96384.80
2023-04-18T19:01:02.514Z,96382.40
2023-04-18T19:03:30.769Z,96381.40
2023-04-18T19:05:58.957Z,96381.80
2023-04-18T19:08:27.005Z,96382.40
2023-04-18T19:10:55.082Z,96381.20
2023-04-18T19:13:23.970Z,96381.40
2023-04-18T19:15:52.046Z,96380.80
2023-04-18T19:18:20.400Z,96381.20
2023-04-18T19:20:52.264Z,96375.80
2023-04-18T19:23:25.178Z,96374.60
2023-04-18T19:25:53.266Z,96378.00
2023-04-18T19:28:22.688Z,96376.40
2023-04-18T19:30:50.965Z,96378.20
2023-04-18T19:33:19.930Z,96378.40
2023-04-18T19:35:48.057Z,96377.80
2023-04-18T19:38:16.248Z,96381.40
2023-04-18T19:40:44.228Z,96386.80
2023-04-18T19:43:12.423Z,96386.00
2023-04-18T19:45:40.685Z,96390.40
2023-04-18T19:48:08.805Z,96391.40
2023-04-18T19:50:39.497Z,96394.40
2023-04-18T19:53:07.400Z,96397.40
2023-04-18T19:55:35.531Z,96396.60
2023-04-18T19:58:05.322Z,96395.40
2023-04-18T20:00:34.330Z,96397.00
2023-04-18T20:03:02.454Z,96394.20
2023-04-18T20:08:04.578Z,96397.00
2023-04-18T20:10:35.385Z,96397.00
2023-04-18T20:13:03.477Z,96401.60
2023-04-18T20:15:31.511Z,96396.60
2023-04-18T20:17:59.970Z,96399.40
2023-04-18T20:20:28.234Z,96396.40
2023-04-18T20:22:56.278Z,96399.60
2023-04-18T20:25:24.412Z,96400.00
2023-04-18T20:27:52.575Z,96395.60
2023-04-18T20:30:22.078Z,96399.40
2023-04-18T20:32:50.307Z,96395.00
2023-04-18T20:35:19.977Z,96396.40
2023-04-18T20:37:49.817Z,96399.20
2023-04-18T20:40:18.720Z,96398.20
2023-04-18T20:42:46.868Z,96392.20
2023-04-18T20:45:14.985Z,96398.20
2023-04-18T20:47:43.413Z,96394.60
2023-04-18T20:50:11.522Z,96390.40
2023-04-18T20:52:42.873Z,96393.00
2023-04-18T20:55:11.376Z,96386.60
2023-04-18T20:57:39.525Z,96389.20
2023-04-18T21:00:08.406Z,96388.60
2023-04-18T21:02:36.593Z,96386.00
2023-04-18T21:05:05.274Z,96384.40
2023-04-18T21:07:33.536Z,96382.00
2023-04-18T21:10:01.981Z,96382.60
2023-04-18T21:12:30.187Z,96381.80
2023-04-18T21:14:58.294Z,96382.00
2023-04-18T21:17:27.102Z,96379.00
2023-04-18T21:19:55.879Z,96375.60
2023-04-18T21:22:23.961Z,96370.80
2023-04-18T21:24:51.993Z,96371.00
2023-04-18T21:27:20.076Z,96368.40
2023-04-18T21:34:56.453Z,96366.40
2023-04-18T21:37:25.146Z,96363.60
2023-04-18T21:42:26.925Z,96367.80
2023-04-18T21:44:54.943Z,96372.80
2023-04-18T21:47:23.383Z,96371.20
2023-04-18T21:49:51.524Z,96375.20
2023-04-18T21:52:19.589Z,96372.20
2023-04-18T21:54:47.918Z,96364.80
2023-04-18T21:57:16.000Z,96369.00
2023-04-18T21:59:44.050Z,96369.80
2023-04-18T22:02:12.632Z,96367.40
2023-04-18T22:04:42.663Z,96361.00
2023-04-18T22:07:12.149Z,96365.00
2023-04-18T22:09:40.855Z,96361.20
2023-04-18T22:12:08.977Z,96359.00
2023-04-18T22:14:37.195Z,96360.80
2023-04-18T22:17:05.324Z,96359.20
2023-04-18T22:22:06.321Z,96351.20
2023-04-18T22:24:35.565Z,96353.40
2023-04-18T22:27:04.254Z,96351.80
2023-04-18T22:29:32.497Z,96347.80
2023-04-18T22:32:00.738Z,96350.60
2023-04-18T22:34:28.900Z,96347.80
2023-04-18T22:36:56.991Z,96349.80
2023-04-18T22:39:25.504Z,96346.80
2023-04-18T22:41:53.517Z,96344.20
2023-04-18T22:46:54.849Z,96338.20
2023-04-18T22:49:23.305Z,96338.20
2023-04-18T22:51:54.551Z,96338.60
2023-04-18T22:54:22.775Z,96335.40
2023-04-18T22:56:53.351Z,96335.20
2023-04-18T22:59:24.541Z,96334.00
2023-04-18T23:01:52.633Z,96330.60
2023-04-18T23:04:20.817Z,96328.40
2023-04-18T23:06:48.969Z,96326.80
2023-04-18T23:09:19.645Z,96323.80
2023-04-18T23:11:47.742Z,96321.80
2023-04-18T23:14:15.983Z,96318.60
2023-04-18T23:16:44.129Z,96318.40
2023-04-18T23:19:12.138Z,96312.20
2023-04-18T23:21:40.249Z,96310.40
2023-04-18T23:24:08.789Z,96311.20
2023-04-18T23:26:37.580Z,96304.20
2023-04-18T23:29:05.633Z,96303.40
2023-04-18T23:31:33.737Z,96297.00
2023-04-18T23:34:01.832Z,96296.20
2023-04-18T23:36:30.182Z,96295.00
2023-04-18T23:38:58.270Z,96289.20
2023-04-18T23:41:26.366Z,96286.40
2023-04-18T23:43:54.359Z,96283.00
2023-04-18T23:46:22.427Z,96282.00
2023-04-18T23:48:50.650Z,96279.20
2023-04-18T23:51:19.244Z,96277.00
2023-04-18T23:53:47.332Z,96273.80
2023-04-18T23:56:16.072Z,96270.40
2023-04-18T23:58:44.164Z,96267.40
